createdAt,value
2019-04-21T00:00:39.726Z,67.70
2019-04-21T00:03:18.259Z,68.10
2019-04-21T00:05:57.401Z,67.00
2019-04-21T00:13:29.492Z,70.00
2019-04-21T00:15:53.440Z,71.30
2019-04-21T00:18:47.671Z,71.30
2019-04-21T00:21:21.127Z,71.70
2019-04-21T00:23:58.712Z,73.30
2019-04-21T00:26:29.053Z,74.40
2019-04-21T00:29:11.147Z,74.70
2019-04-21T00:31:28.339Z,75.30
2019-04-21T00:33:47.788Z,76.80
2019-04-21T00:36:23.774Z,77.40
2019-04-21T00:39:23.265Z,77.30
2019-04-21T00:41:40.229Z,79.60
2019-04-21T00:44:00.721Z,79.70
2019-04-21T00:46:35.165Z,79.40
2019-04-21T00:49:05.900Z,80.80
2019-04-21T00:52:00.542Z,81.30
2019-04-21T00:54:24.606Z,81.10
2019-04-21T00:57:01.332Z,82.80
2019-04-21T00:59:25.632Z,84.60
2019-04-21T01:01:55.535Z,85.20
2019-04-21T01:04:33.797Z,86.10
2019-04-21T01:07:03.829Z,87.90
2019-04-21T01:09:27.611Z,88.50
2019-04-21T01:12:05.120Z,88.60
2019-04-21T01:14:41.952Z,90.10
2019-04-21T01:17:03.866Z,90.20
2019-04-21T01:19:33.708Z,90.20
2019-04-21T01:21:46.574Z,90.50
2019-04-21T01:24:21.940Z,91.50
2019-04-21T01:26:56.788Z,91.90
2019-04-21T01:29:41.464Z,92.90
2019-04-21T01:32:11.607Z,91.90
2019-04-21T01:34:39.352Z,92.20
2019-04-21T01:37:04.620Z,93.80
2019-04-21T01:39:50.236Z,94.80
2019-04-21T01:42:19.128Z,95.70
2019-04-21T01:44:46.272Z,94.90
2019-04-21T01:47:13.071Z,94.60
2019-04-21T01:49:37.059Z,94.60
2019-04-21T01:52:23.747Z,95.10
2019-04-21T01:55:06.398Z,96.50
2019-04-21T01:57:54.008Z,97.90
2019-04-21T02:00:36.811Z,97.40
2019-04-21T02:03:16.520Z,98.00
2019-04-21T02:05:44.380Z,99.90
2019-04-21T02:08:05.385Z,99.90
2019-04-21T02:10:50.651Z,99.90
2019-04-21T02:13:09.075Z,99.90
2019-04-21T02:15:42.238Z,99.90
2019-04-21T02:18:12.118Z,99.90
2019-04-21T02:20:32.763Z,99.90
2019-04-21T02:25:48.744Z,99.90
2019-04-21T02:28:21.776Z,99.90
2019-04-21T02:31:05.350Z,99.90
2019-04-21T02:36:18.990Z,99.90
2019-04-21T02:38:36.326Z,99.90
2019-04-21T02:41:01.871Z,99.90
2019-04-21T02:46:15.126Z,99.90
2019-04-21T02:48:39.103Z,99.90
2019-04-21T02:51:13.063Z,99.90
2019-04-21T02:53:53.637Z,99.90
2019-04-21T02:56:09.801Z,99.90
2019-04-21T02:58:59.734Z,99.90
2019-04-21T03:02:00.940Z,99.90
2019-04-21T03:04:30.416Z,99.90
2019-04-21T03:07:11.404Z,99.90
2019-04-21T03:09:30.806Z,99.90
2019-04-21T03:14:51.803Z,99.90
2019-04-21T03:17:05.728Z,99.90
2019-04-21T03:22:18.197Z,99.90
2019-04-21T03:24:53.541Z,99.90
2019-04-21T03:27:22.333Z,99.90
2019-04-21T03:29:48.680Z,99.90
2019-04-21T03:35:21.180Z,99.90
2019-04-21T03:37:27.452Z,99.90
2019-04-21T03:42:34.367Z,99.90
2019-04-21T03:44:48.304Z,99.90
2019-04-21T03:47:24.923Z,99.90
2019-04-21T03:49:54.671Z,99.90
2019-04-21T03:52:20.076Z,99.90
2019-04-21T03:58:17.926Z,99.90
2019-04-21T04:03:35.215Z,99.90
2019-04-21T04:08:51.609Z,99.90
2019-04-21T04:11:23.459Z,99.90
2019-04-21T04:16:20.317Z,99.90
2019-04-21T04:18:52.906Z,99.90
2019-04-21T04:21:30.252Z,99.90
2019-04-21T04:23:58.073Z,99.90
2019-04-21T04:26:29.076Z,99.90
2019-04-21T04:28:58.035Z,99.90
2019-04-21T04:31:32.086Z,99.90
2019-04-21T04:36:47.846Z,99.90
2019-04-21T04:39:36.290Z,99.90
2019-04-21T04:42:26.768Z,99.90
2019-04-21T04:44:54.233Z,99.90
2019-04-21T04:48:09.088Z,99.90
2019-04-21T04:49:53.533Z,99.90
2019-04-21T04:54:59.369Z,99.90
2019-04-21T04:57:22.162Z,99.90
2019-04-21T04:59:53.985Z,99.90
2019-04-21T05:04:59.174Z,99.90
2019-04-21T05:07:27.337Z,99.90
2019-04-21T05:09:55.580Z,99.90
2019-04-21T05:12:22.703Z,99.90
2019-04-21T05:14:52.903Z,99.90
2019-04-21T05:17:30.977Z,99.90
2019-04-21T05:22:21.903Z,99.90
2019-04-21T05:24:44.192Z,99.90
2019-04-21T05:27:49.712Z,99.90
2019-04-21T05:30:45.062Z,99.90
2019-04-21T05:33:39.832Z,99.90
2019-04-21T05:36:20.467Z,99.90
2019-04-21T05:39:02.556Z,99.90
2019-04-21T05:41:31.375Z,99.90
2019-04-21T05:44:13.343Z,99.90
2019-04-21T05:46:50.666Z,99.90
2019-04-21T05:49:27.950Z,99.90
2019-04-21T05:51:55.701Z,99.90
2019-04-21T05:54:39.689Z,99.90
2019-04-21T05:57:08.298Z,99.90
2019-04-21T05:59:41.729Z,99.90
2019-04-21T06:02:19.076Z,99.90
2019-04-21T06:04:56.593Z,99.90
2019-04-21T06:07:18.967Z,99.90
2019-04-21T06:09:53.869Z,99.90
2019-04-21T06:12:15.585Z,99.90
2019-04-21T06:14:48.272Z,99.90
2019-04-21T06:17:19.333Z,99.90
2019-04-21T06:19:52.751Z,99.90
2019-04-21T06:22:17.304Z,99.90
2019-04-21T06:25:15.751Z,99.90
2019-04-21T06:27:29.914Z,99.90
2019-04-21T06:29:55.304Z,99.90
2019-04-21T06:42:32.503Z,97.40
2019-04-21T06:45:07.311Z,96.00
2019-04-21T06:47:43.941Z,95.80
2019-04-21T06:50:02.136Z,94.90
2019-04-21T06:52:50.104Z,94.30
2019-04-21T06:55:12.640Z,94.00
2019-04-21T06:57:40.398Z,92.90
2019-04-21T07:00:06.281Z,91.60
2019-04-21T07:03:04.423Z,91.10
2019-04-21T07:05:17.115Z,90.50
2019-04-21T07:07:51.814Z,90.30
2019-04-21T07:10:19.553Z,88.80
2019-04-21T07:12:39.293Z,87.40
2019-04-21T07:15:18.729Z,88.10
2019-04-21T07:17:45.730Z,85.70
2019-04-21T07:20:18.872Z,85.10
2019-04-21T07:22:50.986Z,83.60
2019-04-21T07:25:23.876Z,83.00
2019-04-21T07:27:57.093Z,82.80
2019-04-21T07:30:26.683Z,81.80
2019-04-21T07:32:55.371Z,81.60
2019-04-21T07:35:23.587Z,80.70
2019-04-21T07:37:53.554Z,79.30
2019-04-21T07:40:19.063Z,78.60
2019-04-21T07:42:56.151Z,77.40
2019-04-21T07:45:22.440Z,75.40
2019-04-21T07:48:06.462Z,75.20
2019-04-21T07:50:46.385Z,75.20
2019-04-21T07:53:27.760Z,74.50
2019-04-21T07:55:32.613Z,73.20
2019-04-21T07:58:22.561Z,71.80
2019-04-21T08:00:57.707Z,70.20
2019-04-21T08:03:28.234Z,71.40
2019-04-21T08:05:58.976Z,69.30
2019-04-21T08:08:26.332Z,68.60
2019-04-21T08:10:56.768Z,67.60
2019-04-21T08:13:34.644Z,66.60
2019-04-21T08:15:56.387Z,67.00
2019-04-21T08:18:33.415Z,65.10
2019-04-21T08:21:02.760Z,64.70
2019-04-21T08:23:31.503Z,64.70
2019-04-21T08:26:05.886Z,64.10
2019-04-21T08:28:39.192Z,63.50
2019-04-21T08:31:10.262Z,64.70
2019-04-21T08:33:47.138Z,62.70
2019-04-21T08:36:18.970Z,62.40
2019-04-21T08:38:46.014Z,65.20
2019-04-21T08:41:15.239Z,60.70
2019-04-21T08:43:48.106Z,60.60
2019-04-21T08:48:54.323Z,61.20
2019-04-21T08:51:27.569Z,61.70
2019-04-21T08:54:07.368Z,59.80
2019-04-21T08:56:37.968Z,59.20
2019-04-21T08:59:21.953Z,57.90
2019-04-21T09:01:55.580Z,58.40
2019-04-21T09:04:39.258Z,59.60
2019-04-21T09:09:31.984Z,59.40
2019-04-21T09:12:01.661Z,56.50
2019-04-21T09:14:33.517Z,57.40
2019-04-21T09:16:56.364Z,55.30
2019-04-21T09:19:44.527Z,56.80
2019-04-21T09:22:05.606Z,55.00
2019-04-21T09:24:33.443Z,54.60
2019-04-21T09:27:07.116Z,55.10
2019-04-21T09:29:28.633Z,53.90
2019-04-21T09:31:55.483Z,54.10
2019-04-21T09:34:30.098Z,55.20
2019-04-21T09:37:03.346Z,52.60
2019-04-21T09:39:27.723Z,53.30
2019-04-21T09:42:00.335Z,52.80
2019-04-21T09:44:32.922Z,51.20
2019-04-21T09:47:01.250Z,50.40
2019-04-21T09:49:31.707Z,49.10
2019-04-21T09:51:59.963Z,50.30
2019-04-21T09:54:33.648Z,49.20
2019-04-21T09:57:06.094Z,49.00
2019-04-21T09:59:37.014Z,49.20
2019-04-21T10:02:09.566Z,48.70
2019-04-21T10:04:33.768Z,48.90
2019-04-21T10:07:04.491Z,49.80
2019-04-21T10:09:35.452Z,49.60
2019-04-21T10:12:05.247Z,48.40
2019-04-21T10:14:35.063Z,48.20
2019-04-21T10:17:39.462Z,48.70
2019-04-21T10:20:11.842Z,48.30
2019-04-21T10:22:41.438Z,49.50
2019-04-21T10:25:12.575Z,48.60
2019-04-21T10:27:43.087Z,49.80
2019-04-21T10:30:14.312Z,48.00
2019-04-21T10:32:43.729Z,48.80
2019-04-21T10:35:13.210Z,48.20
2019-04-21T10:37:53.705Z,48.00
2019-04-21T10:40:16.330Z,48.50
2019-04-21T10:42:45.977Z,48.60
2019-04-21T10:45:17.378Z,48.40
2019-04-21T10:47:47.209Z,49.10
2019-04-21T10:50:18.377Z,49.80
2019-04-21T10:53:02.988Z,49.40
2019-04-21T10:55:48.576Z,49.90
2019-04-21T10:58:18.214Z,49.50
2019-04-21T11:00:48.482Z,49.30
2019-04-21T11:03:38.351Z,49.30
2019-04-21T11:06:08.669Z,48.80
2019-04-21T11:08:45.041Z,50.00
2019-04-21T11:11:10.058Z,49.80
2019-04-21T11:13:40.834Z,50.30
2019-04-21T11:16:11.038Z,51.10
2019-04-21T11:18:41.954Z,50.20
2019-04-21T11:21:11.506Z,48.90
2019-04-21T11:23:40.878Z,48.80
2019-04-21T11:26:10.218Z,48.60
2019-04-21T11:28:40.745Z,49.70
2019-04-21T11:31:11.078Z,50.10
2019-04-21T11:33:40.691Z,49.80
2019-04-21T11:36:11.120Z,49.50
2019-04-21T11:39:05.600Z,49.80
2019-04-21T11:41:19.454Z,49.50
2019-04-21T11:43:48.978Z,49.50
2019-04-21T11:46:18.361Z,48.60
2019-04-21T11:48:48.339Z,48.80
2019-04-21T11:51:19.160Z,48.70
2019-04-21T12:01:17.969Z,48.50
2019-04-21T12:03:47.607Z,48.90
2019-04-21T12:06:17.558Z,50.20
2019-04-21T12:08:49.870Z,50.00
2019-04-21T12:11:17.954Z,50.30
2019-04-21T12:13:47.976Z,50.90
2019-04-21T12:16:17.438Z,50.30
2019-04-21T12:18:47.219Z,50.00
2019-04-21T12:21:16.831Z,49.00
2019-04-21T12:23:46.463Z,48.80
2019-04-21T12:26:15.975Z,49.00
2019-04-21T12:28:45.999Z,49.30
2019-04-21T12:31:41.410Z,49.10
2019-04-21T12:34:12.198Z,49.20
2019-04-21T12:36:42.111Z,50.30
2019-04-21T12:39:12.972Z,51.10
2019-04-21T12:41:42.641Z,49.70
2019-04-21T12:44:12.914Z,49.80
2019-04-21T12:46:43.597Z,48.70
2019-04-21T12:49:13.776Z,49.30
2019-04-21T12:51:44.096Z,49.20
2019-04-21T12:54:13.530Z,49.40
2019-04-21T12:56:43.347Z,48.70
2019-04-21T12:59:12.992Z,48.30
2019-04-21T13:01:43.090Z,48.90
2019-04-21T13:06:43.571Z,50.40
2019-04-21T13:09:16.378Z,51.00
2019-04-21T13:11:43.999Z,51.20
2019-04-21T13:14:13.710Z,51.30
2019-04-21T13:16:43.487Z,52.30
2019-04-21T13:19:13.383Z,52.20
2019-04-21T13:21:43.006Z,52.80
2019-04-21T13:24:13.607Z,52.70
2019-04-21T13:26:50.448Z,53.10
2019-04-21T13:29:14.606Z,52.20
2019-04-21T13:31:44.525Z,53.10
2019-04-21T13:34:14.263Z,52.80
2019-04-21T13:36:43.775Z,51.90
2019-04-21T13:39:55.222Z,52.60
2019-04-21T13:42:15.754Z,52.40
2019-04-21T13:44:35.456Z,52.10
2019-04-21T13:47:04.966Z,50.00
2019-04-21T13:49:35.078Z,49.60
2019-04-21T13:52:05.179Z,49.30
2019-04-21T13:54:35.665Z,48.90
2019-04-21T13:57:05.194Z,48.50
2019-04-21T13:59:34.533Z,49.10
2019-04-21T14:02:04.738Z,48.30
2019-04-21T14:04:35.537Z,48.30
2019-04-21T14:07:06.025Z,48.20
2019-04-21T14:09:43.907Z,47.90
2019-04-21T14:12:07.623Z,47.10
2019-04-21T14:14:38.334Z,47.10
2019-04-21T14:17:08.909Z,47.30
2019-04-21T14:19:39.460Z,48.20
2019-04-21T14:22:11.608Z,47.90
2019-04-21T14:24:39.920Z,47.80
2019-04-21T14:27:10.163Z,47.90
2019-04-21T14:29:39.583Z,47.40
2019-04-21T14:32:10.482Z,47.20
2019-04-21T14:34:40.086Z,47.40
2019-04-21T14:37:10.770Z,47.70
2019-04-21T14:39:50.265Z,46.80
2019-04-21T14:42:13.942Z,47.00
2019-04-21T14:44:45.073Z,47.00
2019-04-21T14:47:34.983Z,47.50
2019-04-21T14:50:15.927Z,45.60
2019-04-21T14:52:46.598Z,45.50
2019-04-21T14:55:20.823Z,47.10
2019-04-21T14:57:51.599Z,46.90
2019-04-21T15:00:22.894Z,47.40
2019-04-21T15:02:53.721Z,47.20
2019-04-21T15:05:23.327Z,47.60
2019-04-21T15:07:55.100Z,48.70
2019-04-21T15:10:27.056Z,48.30
2019-04-21T15:12:56.003Z,48.60
2019-04-21T15:15:25.654Z,49.60
2019-04-21T15:17:55.707Z,49.60
2019-04-21T15:20:25.627Z,49.80
2019-04-21T15:22:56.624Z,50.40
2019-04-21T15:25:26.115Z,49.70
2019-04-21T15:27:56.915Z,48.90
2019-04-21T15:30:26.896Z,48.60
2019-04-21T15:32:56.460Z,47.60
2019-04-21T15:35:26.928Z,47.80
2019-04-21T15:37:58.029Z,46.50
2019-04-21T15:40:37.463Z,46.70
2019-04-21T15:43:00.158Z,46.90
2019-04-21T15:45:30.601Z,47.10
2019-04-21T15:48:00.483Z,47.20
2019-04-21T15:50:30.178Z,47.40
2019-04-21T15:53:03.513Z,47.40
2019-04-21T15:55:57.004Z,47.60
2019-04-21T15:58:52.676Z,47.40
2019-04-21T16:01:56.844Z,47.50
2019-04-21T16:04:26.214Z,48.30
2019-04-21T16:06:55.610Z,48.20
2019-04-21T16:09:26.946Z,48.60
2019-04-21T16:11:55.994Z,48.90
2019-04-21T16:14:26.890Z,49.20
2019-04-21T16:16:57.145Z,49.10
2019-04-21T16:19:27.198Z,49.40
2019-04-21T16:21:56.867Z,48.90
2019-04-21T16:24:27.370Z,49.20
2019-04-21T16:27:01.310Z,49.40
2019-04-21T16:29:29.240Z,49.00
2019-04-21T16:31:59.639Z,49.20
2019-04-21T16:34:39.013Z,49.00
2019-04-21T16:37:01.398Z,48.60
2019-04-21T16:39:31.535Z,48.90
2019-04-21T16:42:02.457Z,48.60
2019-04-21T16:44:31.925Z,48.30
2019-04-21T16:47:01.420Z,48.70
2019-04-21T16:49:31.779Z,48.50
2019-04-21T16:52:16.439Z,47.80
2019-04-21T16:54:49.706Z,47.80
2019-04-21T16:57:25.882Z,47.60
2019-04-21T17:00:00.119Z,47.30
2019-04-21T17:02:30.403Z,47.30
2019-04-21T17:05:00.403Z,46.60
2019-04-21T17:07:30.458Z,47.10
2019-04-21T17:09:59.933Z,46.70
2019-04-21T17:12:30.694Z,46.70
2019-04-21T17:15:13.899Z,46.60
2019-04-21T17:17:49.675Z,46.50
2019-04-21T17:20:17.206Z,47.00
2019-04-21T17:22:33.690Z,46.70
2019-04-21T17:25:04.459Z,46.90
2019-04-21T17:27:36.531Z,47.00
2019-04-21T17:30:08.452Z,47.20
2019-04-21T17:32:45.428Z,47.50
2019-04-21T17:35:10.330Z,47.50
2019-04-21T17:37:40.436Z,47.40
2019-04-21T17:40:11.530Z,47.70
2019-04-21T17:42:48.179Z,47.90
2019-04-21T17:45:13.209Z,48.40
2019-04-21T17:47:49.907Z,48.60
2019-04-21T17:50:27.498Z,48.60
2019-04-21T17:53:06.565Z,48.70
2019-04-21T17:55:36.990Z,48.70
2019-04-21T17:58:16.320Z,49.10
2019-04-21T18:03:40.399Z,49.00
2019-04-21T18:05:56.298Z,48.30
2019-04-21T18:08:30.619Z,48.20
2019-04-21T18:10:55.456Z,48.30
2019-04-21T18:13:19.545Z,48.70
2019-04-21T18:16:02.877Z,48.80
2019-04-21T18:18:19.052Z,49.20
2019-04-21T18:20:54.995Z,49.40
2019-04-21T18:23:42.895Z,49.00
2019-04-21T18:26:07.673Z,49.00
2019-04-21T18:28:32.570Z,48.40
2019-04-21T18:31:06.864Z,48.40
2019-04-21T18:33:42.321Z,49.10
2019-04-21T18:36:42.289Z,49.20
2019-04-21T18:39:34.194Z,48.70
2019-04-21T18:42:21.224Z,48.60
2019-04-21T18:45:28.477Z,48.80
2019-04-21T18:47:55.535Z,49.20
2019-04-21T18:50:39.233Z,49.20
2019-04-21T18:53:36.466Z,49.30
2019-04-21T18:55:58.309Z,49.40
2019-04-21T18:58:22.347Z,49.70
2019-04-21T19:00:53.313Z,50.30
2019-04-21T19:03:31.909Z,50.60
2019-04-21T19:06:02.778Z,50.80
2019-04-21T19:08:46.814Z,50.70
2019-04-21T19:11:19.092Z,51.00
2019-04-21T19:19:35.404Z,52.00
2019-04-21T19:21:28.369Z,52.00
2019-04-21T19:24:18.353Z,52.20
2019-04-21T19:26:49.437Z,52.70
2019-04-21T19:29:19.690Z,52.90
2019-04-21T19:31:46.701Z,53.10
2019-04-21T19:34:02.140Z,53.30
2019-04-21T19:36:25.617Z,53.60
2019-04-21T19:39:06.296Z,53.80
2019-04-21T19:41:41.215Z,54.10
2019-04-21T19:44:13.639Z,54.50
2019-04-21T19:46:42.425Z,54.70
2019-04-21T19:51:40.552Z,54.90
2019-04-21T19:54:09.911Z,56.00
2019-04-21T19:56:32.349Z,56.20
2019-04-21T19:59:03.468Z,56.20
2019-04-21T20:01:33.186Z,56.50
2019-04-21T20:04:04.543Z,56.70
2019-04-21T20:06:47.580Z,57.00
2019-04-21T20:09:24.852Z,57.40
2019-04-21T20:11:51.072Z,57.60
2019-04-21T20:16:52.872Z,57.90
2019-04-21T20:19:15.223Z,58.30
2019-04-21T20:21:43.366Z,58.60
2019-04-21T20:24:16.085Z,58.80
2019-04-21T20:26:55.691Z,59.10
2019-04-21T20:29:34.479Z,59.40
2019-04-21T20:32:14.099Z,59.80
2019-04-21T20:34:41.015Z,60.30
2019-04-21T20:37:07.585Z,60.60
2019-04-21T20:39:23.531Z,60.80
2019-04-21T20:42:03.868Z,61.00
2019-04-21T20:44:37.319Z,61.40
2019-04-21T20:47:03.787Z,61.20
2019-04-21T20:49:33.609Z,61.40
2019-04-21T20:52:29.495Z,61.40
2019-04-21T20:54:40.796Z,61.40
2019-04-21T20:57:11.517Z,61.90
2019-04-21T20:59:40.876Z,62.30
2019-04-21T21:02:14.685Z,62.30
2019-04-21T21:04:40.320Z,62.50
2019-04-21T21:07:28.303Z,62.70
2019-04-21T21:09:57.728Z,62.60
2019-04-21T21:12:31.773Z,62.90
2019-04-21T21:14:47.464Z,62.80
2019-04-21T21:17:34.257Z,62.90
2019-04-21T21:19:53.357Z,62.90
2019-04-21T21:22:18.296Z,63.10
2019-04-21T21:24:57.127Z,63.00
2019-04-21T21:27:25.214Z,63.40
2019-04-21T21:32:44.884Z,62.80
2019-04-21T21:34:56.860Z,63.10
2019-04-21T21:40:04.124Z,64.00
2019-04-21T21:42:23.258Z,64.10
2019-04-21T21:44:54.595Z,63.90
2019-04-21T21:47:30.437Z,63.90
2019-04-21T21:50:02.515Z,63.90
2019-04-21T21:52:35.368Z,64.00
2019-04-21T21:54:51.853Z,64.30
2019-04-21T21:57:22.818Z,64.40
2019-04-21T21:59:59.037Z,64.60
2019-04-21T22:02:33.050Z,64.70
2019-04-21T22:05:06.636Z,64.80
2019-04-21T22:07:29.664Z,64.90
2019-04-21T22:09:58.045Z,65.10
2019-04-21T22:12:35.195Z,65.20
2019-04-21T22:15:04.551Z,65.20
2019-04-21T22:17:46.794Z,65.50
2019-04-21T22:20:21.494Z,65.80
2019-04-21T22:22:43.971Z,65.90
2019-04-21T22:25:10.648Z,66.00
2019-04-21T22:27:34.993Z,66.00
2019-04-21T22:30:10.519Z,66.30
2019-04-21T22:32:38.660Z,66.60
2019-04-21T22:35:16.395Z,67.00
2019-04-21T22:37:51.346Z,66.90
2019-04-21T22:40:22.978Z,67.10
2019-04-21T22:42:54.563Z,67.20
2019-04-21T22:45:15.475Z,67.20
2019-04-21T22:47:46.541Z,67.30
2019-04-21T22:50:28.849Z,67.20
2019-04-21T22:53:04.160Z,67.00
2019-04-21T22:55:33.456Z,67.80
2019-04-21T22:58:02.035Z,67.10
2019-04-21T23:00:37.779Z,66.90
2019-04-21T23:03:10.720Z,67.00
2019-04-21T23:05:38.324Z,67.00
2019-04-21T23:08:07.209Z,67.20
